createdAt,value
2019-02-20T00:00:46.497Z,75.09
2019-02-20T00:03:18.428Z,74.86
2019-02-20T00:05:50.145Z,75.03
2019-02-20T00:08:22.005Z,75.01
2019-02-20T00:10:54.021Z,75.05
2019-02-20T00:13:25.365Z,75.40
2019-02-20T00:15:57.245Z,75.01
2019-02-20T00:18:29.846Z,74.94
2019-02-20T00:21:01.578Z,74.99
2019-02-20T00:23:33.039Z,75.58
2019-02-20T00:26:04.893Z,75.54
2019-02-20T00:28:36.534Z,75.09
2019-02-20T00:31:07.963Z,74.74
2019-02-20T00:33:41.231Z,75.02
2019-02-20T00:36:12.720Z,75.69
2019-02-20T00:38:44.416Z,75.52
2019-02-20T00:41:15.736Z,75.10
2019-02-20T00:43:58.001Z,74.64
2019-02-20T00:46:35.188Z,74.35
2019-02-20T00:49:23.764Z,75.36
2019-02-20T00:52:20.882Z,74.78
2019-02-20T00:54:54.418Z,74.24
2019-02-20T00:57:26.684Z,74.34
2019-02-20T00:59:58.708Z,74.37
2019-02-20T01:02:30.393Z,74.38
2019-02-20T01:05:03.249Z,74.58
2019-02-20T01:07:34.865Z,74.12
2019-02-20T01:10:07.202Z,74.03
2019-02-20T01:12:38.925Z,74.41
2019-02-20T01:15:10.970Z,74.04
2019-02-20T01:17:42.315Z,73.91
2019-02-20T01:20:13.752Z,74.02
2019-02-20T01:22:45.547Z,73.67
2019-02-20T01:25:18.315Z,73.59
2019-02-20T01:27:51.620Z,73.60
2019-02-20T01:30:23.337Z,73.34
2019-02-20T01:32:55.278Z,73.30
2019-02-20T01:35:26.915Z,72.99
2019-02-20T01:37:58.424Z,73.24
2019-02-20T01:40:30.110Z,73.08
2019-02-20T01:43:01.756Z,72.88
2019-02-20T01:45:33.503Z,73.06
2019-02-20T01:48:04.822Z,72.93
2019-02-20T01:50:36.515Z,72.80
2019-02-20T01:53:10.315Z,72.93
2019-02-20T01:55:41.534Z,72.78
2019-02-20T01:58:12.871Z,72.70
2019-02-20T02:00:44.251Z,72.59
2019-02-20T02:03:15.612Z,72.61
2019-02-20T02:05:46.988Z,72.72
2019-02-20T02:08:18.699Z,72.71
2019-02-20T02:10:50.351Z,72.58
2019-02-20T02:13:22.981Z,72.52
2019-02-20T02:15:54.673Z,72.74
2019-02-20T02:18:29.537Z,72.57
2019-02-20T02:21:01.712Z,72.61
2019-02-20T02:23:33.089Z,72.65
2019-02-20T02:26:10.675Z,72.69
2019-02-20T02:28:37.769Z,72.74
2019-02-20T02:31:12.460Z,72.50
2019-02-20T02:33:43.917Z,72.61
2019-02-20T02:36:15.655Z,72.52
2019-02-20T02:38:47.067Z,72.51
2019-02-20T02:41:19.147Z,72.30
2019-02-20T02:43:50.871Z,72.25
2019-02-20T02:46:22.508Z,72.24
2019-02-20T02:48:53.853Z,72.00
2019-02-20T02:51:25.172Z,72.14
2019-02-20T02:53:56.604Z,72.11
2019-02-20T02:56:27.949Z,72.18
2019-02-20T02:58:59.344Z,72.45
2019-02-20T03:01:31.034Z,72.38
2019-02-20T03:04:02.654Z,72.43
2019-02-20T03:06:34.031Z,72.57
2019-02-20T03:09:06.333Z,72.81
2019-02-20T03:11:37.719Z,73.03
2019-02-20T03:14:09.124Z,73.29
2019-02-20T03:16:41.122Z,73.08
2019-02-20T03:19:12.457Z,73.15
2019-02-20T03:21:44.101Z,73.44
2019-02-20T03:24:15.916Z,73.60
2019-02-20T03:26:47.253Z,73.27
2019-02-20T03:29:19.052Z,73.04
2019-02-20T03:31:50.880Z,72.97
2019-02-20T03:34:22.623Z,73.23
2019-02-20T03:36:54.929Z,72.74
2019-02-20T03:39:26.665Z,72.70
2019-02-20T03:41:58.432Z,72.75
2019-02-20T03:44:30.805Z,72.36
2019-02-20T03:47:02.240Z,72.39
2019-02-20T03:49:33.753Z,72.47
2019-02-20T03:52:05.108Z,72.57
2019-02-20T03:54:36.809Z,72.50
2019-02-20T03:57:08.128Z,72.88
2019-02-20T03:59:40.708Z,72.76
2019-02-20T04:02:12.767Z,72.93
2019-02-20T04:04:44.420Z,72.73
2019-02-20T04:07:16.365Z,73.00
2019-02-20T04:09:48.269Z,73.10
2019-02-20T04:12:19.897Z,73.25
2019-02-20T04:14:51.236Z,73.20
2019-02-20T04:17:23.321Z,72.98
2019-02-20T04:19:54.635Z,73.04
2019-02-20T04:22:25.953Z,73.14
2019-02-20T04:24:57.969Z,73.23
2019-02-20T04:27:29.732Z,73.65
2019-02-20T04:30:01.096Z,73.26
2019-02-20T04:32:32.876Z,73.50
2019-02-20T04:35:04.546Z,73.45
2019-02-20T04:37:36.582Z,73.70
2019-02-20T04:40:08.158Z,73.92
2019-02-20T04:42:39.473Z,73.97
2019-02-20T04:45:11.325Z,74.18
2019-02-20T04:47:42.839Z,74.30
2019-02-20T04:50:14.464Z,74.15
2019-02-20T04:52:45.797Z,74.41
2019-02-20T04:55:17.266Z,74.73
2019-02-20T04:58:07.048Z,74.70
2019-02-20T05:00:38.485Z,74.41
2019-02-20T05:03:11.109Z,74.61
2019-02-20T05:05:42.550Z,74.63
2019-02-20T05:08:13.865Z,74.19
2019-02-20T05:10:45.534Z,74.32
2019-02-20T05:13:17.921Z,74.72
2019-02-20T05:15:49.248Z,74.95
2019-02-20T05:18:21.138Z,74.88
2019-02-20T05:20:52.579Z,74.56
2019-02-20T05:23:23.926Z,74.66
2019-02-20T05:25:55.642Z,74.61
2019-02-20T05:28:27.036Z,75.05
2019-02-20T05:30:58.418Z,74.69
2019-02-20T05:33:29.761Z,75.43
2019-02-20T05:36:01.887Z,75.21
2019-02-20T05:38:34.037Z,74.74
2019-02-20T05:41:05.741Z,75.22
2019-02-20T05:43:37.748Z,75.23
2019-02-20T05:46:09.361Z,75.34
2019-02-20T05:48:41.548Z,75.24
2019-02-20T05:51:12.934Z,75.43
2019-02-20T05:53:44.279Z,75.24
2019-02-20T05:56:15.904Z,75.52
2019-02-20T05:58:47.312Z,75.72
2019-02-20T06:01:18.754Z,75.54
2019-02-20T06:03:50.728Z,75.14
2019-02-20T06:06:22.128Z,75.55
2019-02-20T06:08:53.831Z,75.21
2019-02-20T06:11:26.004Z,75.73
2019-02-20T06:13:57.624Z,75.61
2019-02-20T06:16:29.001Z,75.51
2019-02-20T06:19:00.716Z,75.35
2019-02-20T06:21:32.272Z,75.66
2019-02-20T06:24:03.949Z,75.37
2019-02-20T06:26:35.353Z,75.35
2019-02-20T06:29:06.790Z,75.01
2019-02-20T06:31:38.627Z,74.97
2019-02-20T06:34:10.274Z,75.50
2019-02-20T06:36:41.655Z,74.64
2019-02-20T06:39:13.010Z,75.27
2019-02-20T06:41:44.643Z,75.39
2019-02-20T06:44:16.046Z,75.34
2019-02-20T06:46:47.377Z,75.42
2019-02-20T06:49:19.022Z,75.08
2019-02-20T06:51:50.899Z,74.87
2019-02-20T06:54:22.688Z,75.63
2019-02-20T06:56:55.038Z,75.21
2019-02-20T06:59:26.825Z,75.04
2019-02-20T07:01:58.542Z,75.00
2019-02-20T07:04:30.272Z,74.96
2019-02-20T07:07:28.198Z,74.62
2019-02-20T07:10:52.142Z,74.60
2019-02-20T07:13:42.786Z,74.67
2019-02-20T07:17:00.324Z,74.58
2019-02-20T07:19:56.595Z,74.17
2019-02-20T07:23:15.866Z,74.08
2019-02-20T07:26:44.588Z,74.55
2019-02-20T07:29:45.471Z,74.36
2019-02-20T07:32:18.720Z,74.24
2019-02-20T07:34:49.994Z,74.10
2019-02-20T07:37:22.197Z,74.25
2019-02-20T07:39:53.525Z,74.15
2019-02-20T07:42:25.061Z,74.21
2019-02-20T07:44:56.838Z,74.11
2019-02-20T07:47:28.914Z,73.95
2019-02-20T07:50:00.373Z,73.95
2019-02-20T07:52:31.967Z,73.87
2019-02-20T07:55:12.626Z,74.02
2019-02-20T07:57:38.184Z,73.89
2019-02-20T08:00:12.043Z,73.79
2019-02-20T08:02:43.502Z,73.66
2019-02-20T08:05:15.028Z,73.40
2019-02-20T08:07:46.340Z,72.98
2019-02-20T08:10:18.056Z,73.17
2019-02-20T08:12:49.376Z,72.68
2019-02-20T08:15:21.140Z,72.95
2019-02-20T08:17:52.500Z,72.66
2019-02-20T08:20:24.165Z,72.59
2019-02-20T08:22:55.859Z,72.37
2019-02-20T08:25:27.627Z,72.48
2019-02-20T08:27:59.179Z,72.00
2019-02-20T08:30:30.728Z,72.10
2019-02-20T08:33:02.448Z,71.99
2019-02-20T08:35:33.791Z,72.15
2019-02-20T08:38:05.115Z,71.85
2019-02-20T08:40:36.900Z,71.49
2019-02-20T08:43:08.959Z,71.47
2019-02-20T08:45:40.164Z,71.53
2019-02-20T08:48:12.117Z,71.21
2019-02-20T08:50:43.723Z,71.22
2019-02-20T08:53:15.707Z,70.94
2019-02-20T08:55:47.431Z,70.76
2019-02-20T08:58:18.845Z,70.51
2019-02-20T09:00:50.127Z,70.63
2019-02-20T09:03:21.506Z,70.49
2019-02-20T09:05:52.854Z,70.04
2019-02-20T09:08:24.139Z,69.83
2019-02-20T09:10:55.788Z,69.58
2019-02-20T09:13:27.471Z,69.48
2019-02-20T09:16:01.082Z,69.22
2019-02-20T09:18:35.767Z,69.30
2019-02-20T09:21:07.308Z,69.04
2019-02-20T09:23:39.190Z,68.94
2019-02-20T09:26:11.232Z,68.80
2019-02-20T09:28:43.365Z,68.71
2019-02-20T09:31:15.301Z,68.48
2019-02-20T09:33:46.785Z,68.15
2019-02-20T09:36:18.728Z,67.86
2019-02-20T09:38:51.106Z,67.88
2019-02-20T09:41:23.614Z,67.78
2019-02-20T09:43:55.517Z,67.42
2019-02-20T09:46:26.799Z,67.77
2019-02-20T09:48:59.107Z,67.61
2019-02-20T09:51:30.423Z,67.08
2019-02-20T09:54:02.052Z,66.86
2019-02-20T09:56:33.859Z,67.04
2019-02-20T09:59:05.192Z,66.81
2019-02-20T10:01:36.519Z,66.26
2019-02-20T10:04:08.339Z,66.04
2019-02-20T10:06:39.616Z,65.80
2019-02-20T10:09:11.259Z,65.57
2019-02-20T10:11:43.001Z,65.30
2019-02-20T10:14:14.617Z,65.07
2019-02-20T10:16:45.925Z,65.07
2019-02-20T10:19:17.906Z,64.46
2019-02-20T10:21:49.599Z,64.33
2019-02-20T10:24:21.566Z,64.19
2019-02-20T10:27:00.463Z,63.45
2019-02-20T10:29:26.299Z,63.55
2019-02-20T10:31:58.109Z,63.09
2019-02-20T10:34:29.623Z,63.02
2019-02-20T10:37:00.965Z,62.42
2019-02-20T10:39:32.533Z,62.28
2019-02-20T10:42:04.572Z,61.75
2019-02-20T10:44:36.502Z,61.58
2019-02-20T10:47:07.793Z,61.37
2019-02-20T10:49:39.175Z,60.88
2019-02-20T10:52:10.794Z,60.68
2019-02-20T10:54:42.413Z,60.56
2019-02-20T10:57:13.746Z,60.36
2019-02-20T10:59:45.317Z,60.03
2019-02-20T11:02:17.646Z,59.87
2019-02-20T11:04:50.182Z,58.93
2019-02-20T11:07:21.838Z,59.61
2019-02-20T11:09:53.436Z,59.06
2019-02-20T11:12:25.981Z,58.75
2019-02-20T11:14:57.727Z,58.34
2019-02-20T11:17:30.365Z,58.53
2019-02-20T11:20:02.244Z,58.22
2019-02-20T11:22:34.262Z,57.99
2019-02-20T11:25:06.640Z,57.40
2019-02-20T11:27:39.565Z,57.85
2019-02-20T11:30:15.840Z,57.06
2019-02-20T11:32:47.558Z,57.22
2019-02-20T11:35:19.648Z,56.59
2019-02-20T11:37:50.931Z,56.57
2019-02-20T11:40:22.623Z,56.78
2019-02-20T11:42:54.280Z,55.76
2019-02-20T11:45:25.999Z,56.41
2019-02-20T11:47:57.604Z,55.90
2019-02-20T11:50:29.565Z,55.80
2019-02-20T11:53:01.204Z,55.78
2019-02-20T11:55:32.586Z,56.21
2019-02-20T11:58:04.080Z,55.08
2019-02-20T12:00:36.574Z,55.63
2019-02-20T12:03:08.390Z,54.84
2019-02-20T12:05:40.018Z,55.02
2019-02-20T12:08:11.310Z,54.46
2019-02-20T12:10:43.395Z,55.51
2019-02-20T12:13:14.969Z,54.82
2019-02-20T12:15:46.304Z,55.46
2019-02-20T12:18:18.235Z,54.97
2019-02-20T12:20:49.579Z,55.33
2019-02-20T12:23:21.365Z,55.79
2019-02-20T12:25:54.349Z,54.56
2019-02-20T12:28:28.187Z,54.96
2019-02-20T12:31:00.557Z,54.91
2019-02-20T12:33:31.910Z,54.36
2019-02-20T12:36:04.326Z,54.77
2019-02-20T12:38:37.225Z,54.25
2019-02-20T12:41:08.695Z,55.91
2019-02-20T12:43:40.038Z,55.72
2019-02-20T12:46:11.320Z,55.26
2019-02-20T12:48:43.276Z,55.19
2019-02-20T12:51:15.397Z,53.98
2019-02-20T12:53:46.724Z,54.37
2019-02-20T12:56:18.361Z,54.99
2019-02-20T12:58:49.833Z,55.12
2019-02-20T13:01:21.601Z,53.94
2019-02-20T13:03:52.975Z,54.52
2019-02-20T13:06:24.306Z,54.96
2019-02-20T13:08:56.607Z,54.31
2019-02-20T13:11:27.876Z,55.06
2019-02-20T13:13:59.171Z,55.57
2019-02-20T13:16:30.483Z,55.75
2019-02-20T13:19:02.104Z,55.84
2019-02-20T13:21:33.844Z,55.86
2019-02-20T13:24:05.232Z,56.07
2019-02-20T13:26:36.799Z,55.46
2019-02-20T13:29:08.524Z,56.21
2019-02-20T13:31:39.837Z,56.33
2019-02-20T13:34:11.709Z,55.87
2019-02-20T13:36:43.001Z,55.88
2019-02-20T13:39:14.562Z,56.00
2019-02-20T13:41:46.805Z,55.68
2019-02-20T13:44:19.198Z,55.03
2019-02-20T13:46:50.502Z,55.47
2019-02-20T13:49:22.462Z,55.85
2019-02-20T13:51:54.091Z,55.64
2019-02-20T13:54:25.787Z,54.97
2019-02-20T13:57:01.860Z,54.79
2019-02-20T13:59:30.503Z,54.27
2019-02-20T14:02:01.895Z,54.17
2019-02-20T14:04:33.500Z,53.97
2019-02-20T14:07:04.873Z,52.74
2019-02-20T14:09:36.181Z,54.05
2019-02-20T14:12:07.483Z,53.67
2019-02-20T14:14:39.405Z,53.99
2019-02-20T14:17:10.753Z,54.39
2019-02-20T14:19:42.351Z,53.81
2019-02-20T14:22:13.691Z,53.06
2019-02-20T14:24:46.061Z,52.08
2019-02-20T14:27:17.824Z,53.38
2019-02-20T14:29:49.167Z,52.93
2019-02-20T14:32:20.807Z,52.91
2019-02-20T14:34:52.407Z,53.81
2019-02-20T14:37:23.762Z,52.82
2019-02-20T14:39:55.028Z,51.48
2019-02-20T14:42:26.620Z,53.66
2019-02-20T14:44:58.049Z,52.30
2019-02-20T14:47:29.428Z,53.44
2019-02-20T14:50:01.010Z,53.27
2019-02-20T14:52:32.380Z,52.96
2019-02-20T14:55:04.099Z,51.91
2019-02-20T14:57:35.970Z,53.20
2019-02-20T15:00:08.327Z,52.78
2019-02-20T15:02:39.703Z,52.98
2019-02-20T15:05:12.152Z,53.16
2019-02-20T15:07:44.151Z,54.10
2019-02-20T15:10:15.543Z,53.45
2019-02-20T15:12:46.895Z,53.85
2019-02-20T15:15:19.236Z,53.74
2019-02-20T15:17:50.812Z,54.83
2019-02-20T15:20:22.741Z,54.43
2019-02-20T15:22:54.394Z,55.03
2019-02-20T15:25:26.849Z,54.59
2019-02-20T15:27:58.164Z,53.94
2019-02-20T15:30:29.497Z,53.85
2019-02-20T15:33:01.374Z,54.71
2019-02-20T15:35:32.733Z,55.12
2019-02-20T15:38:05.200Z,54.55
2019-02-20T15:40:36.505Z,55.40
2019-02-20T15:43:08.375Z,55.19
2019-02-20T15:45:40.003Z,55.79
2019-02-20T15:48:11.368Z,54.26
2019-02-20T15:50:42.680Z,54.44
2019-02-20T15:53:14.189Z,54.62
2019-02-20T15:55:45.566Z,54.63
2019-02-20T15:58:17.237Z,55.82
2019-02-20T16:00:48.604Z,55.51
2019-02-20T16:03:19.933Z,55.65
2019-02-20T16:05:51.227Z,55.56
2019-02-20T16:08:23.454Z,55.54
2019-02-20T16:10:55.318Z,55.69
2019-02-20T16:19:39.852Z,55.49
2019-02-20T16:22:11.117Z,55.49
2019-02-20T16:24:42.670Z,55.22
2019-02-20T16:27:15.397Z,56.30
2019-02-20T16:29:47.038Z,56.06
2019-02-20T16:32:18.626Z,56.35
2019-02-20T16:34:49.958Z,56.99
2019-02-20T16:37:21.771Z,57.04
2019-02-20T16:39:53.814Z,57.39
2019-02-20T16:42:25.878Z,56.76
2019-02-20T16:44:57.785Z,57.72
2019-02-20T16:47:29.892Z,57.45
2019-02-20T16:50:01.503Z,57.99
2019-02-20T16:52:33.328Z,58.52
2019-02-20T16:55:05.014Z,58.35
2019-02-20T16:57:36.435Z,58.75
2019-02-20T17:00:08.342Z,58.75
2019-02-20T17:02:39.640Z,57.49
2019-02-20T17:05:14.222Z,58.19
2019-02-20T17:07:45.211Z,58.95
2019-02-20T17:10:17.107Z,58.61
2019-02-20T17:12:50.383Z,57.32
2019-02-20T17:15:21.893Z,57.72
2019-02-20T17:17:53.425Z,57.88
2019-02-20T17:20:24.722Z,59.20
2019-02-20T17:22:56.456Z,58.04
2019-02-20T17:25:28.757Z,58.22
2019-02-20T17:28:05.813Z,57.95
2019-02-20T17:30:32.988Z,58.18
2019-02-20T17:33:04.254Z,58.19
2019-02-20T17:35:35.645Z,58.07
2019-02-20T17:38:06.997Z,59.19
2019-02-20T17:40:38.262Z,58.83
2019-02-20T17:43:09.990Z,58.87
2019-02-20T17:45:41.548Z,58.47
2019-02-20T17:48:12.843Z,58.71
2019-02-20T17:50:44.187Z,58.38
2019-02-20T17:53:15.448Z,58.62
2019-02-20T17:55:46.996Z,58.76
2019-02-20T17:58:18.656Z,58.90
2019-02-20T18:00:50.240Z,59.09
2019-02-20T18:03:21.789Z,59.25
2019-02-20T18:05:53.100Z,59.42
2019-02-20T18:08:24.800Z,59.63
2019-02-20T18:10:56.081Z,59.77
2019-02-20T18:13:27.410Z,60.01
2019-02-20T18:15:59.019Z,60.15
2019-02-20T18:18:31.442Z,60.26
2019-02-20T18:21:02.783Z,60.30
2019-02-20T18:23:34.516Z,60.46
2019-02-20T18:26:05.918Z,60.64
2019-02-20T18:28:37.882Z,60.68
2019-02-20T18:31:10.656Z,61.05
2019-02-20T18:33:42.734Z,60.99
2019-02-20T18:36:14.337Z,60.96
2019-02-20T18:38:45.930Z,61.05
2019-02-20T18:41:17.609Z,61.21
2019-02-20T18:43:49.377Z,61.51
2019-02-20T18:46:21.081Z,61.48
2019-02-20T18:48:52.756Z,61.50
2019-02-20T18:51:24.121Z,61.79
2019-02-20T18:53:55.712Z,61.90
2019-02-20T18:56:26.939Z,61.97
2019-02-20T18:58:58.763Z,62.11
2019-02-20T19:01:30.338Z,62.19
2019-02-20T19:04:02.325Z,62.20
2019-02-20T19:06:33.744Z,62.47
2019-02-20T19:09:20.162Z,62.51
2019-02-20T19:13:11.425Z,62.67
2019-02-20T19:16:18.779Z,62.92
2019-02-20T19:19:32.366Z,62.94
2019-02-20T19:22:42.122Z,63.20
2019-02-20T19:26:23.638Z,63.41
2019-02-20T19:30:03.977Z,63.53
2019-02-20T19:33:56.670Z,63.69
2019-02-20T19:37:24.190Z,64.07
2019-02-20T19:40:53.813Z,64.15
2019-02-20T19:44:36.594Z,64.13
2019-02-20T19:48:16.074Z,64.28
2019-02-20T19:51:10.335Z,64.20
2019-02-20T19:54:28.940Z,64.32
2019-02-20T19:57:56.149Z,64.52
2019-02-20T20:01:02.627Z,64.72
2019-02-20T20:04:04.019Z,64.69
2019-02-20T20:07:39.625Z,64.98
2019-02-20T20:10:49.931Z,65.26
2019-02-20T20:13:52.628Z,65.03
2019-02-20T20:17:14.408Z,65.14
2019-02-20T20:21:08.926Z,65.16
2019-02-20T20:24:51.688Z,65.24
2019-02-20T20:28:12.340Z,65.35
2019-02-20T20:31:18.863Z,65.49
2019-02-20T20:34:45.480Z,65.58
2019-02-20T20:38:24.742Z,65.68
2019-02-20T20:41:58.118Z,65.95
2019-02-20T20:45:15.387Z,66.08
2019-02-20T20:48:56.553Z,66.20
2019-02-20T20:52:38.928Z,66.33
2019-02-20T20:56:01.356Z,66.38
2019-02-20T20:59:26.386Z,66.83
2019-02-20T21:02:43.346Z,66.85
2019-02-20T21:06:35.324Z,67.14
2019-02-20T21:09:40.042Z,67.31
2019-02-20T21:13:01.719Z,67.78
2019-02-20T21:16:17.578Z,67.65
2019-02-20T21:20:07.079Z,68.03
2019-02-20T21:23:22.154Z,67.90
2019-02-20T21:26:34.691Z,68.01
2019-02-20T21:29:55.257Z,68.02
2019-02-20T21:33:19.970Z,68.16
2019-02-20T21:36:26.237Z,68.29
2019-02-20T21:39:50.389Z,68.39
2019-02-20T21:43:31.801Z,68.52
2019-02-20T21:46:37.167Z,68.49
2019-02-20T21:49:44.225Z,68.56
2019-02-20T21:53:29.696Z,68.74
2019-02-20T21:56:58.622Z,68.75
2019-02-20T22:00:20.931Z,68.56
2019-02-20T22:04:04.128Z,68.56
2019-02-20T22:07:09.966Z,68.64
2019-02-20T22:10:27.872Z,68.36
2019-02-20T22:14:01.537Z,68.41
2019-02-20T22:17:35.376Z,68.21
2019-02-20T22:21:27.946Z,67.99
2019-02-20T22:25:09.362Z,67.90
2019-02-20T22:28:48.316Z,67.81
2019-02-20T22:32:13.452Z,67.87
2019-02-20T22:35:30.566Z,67.57
2019-02-20T22:39:31.886Z,67.63
2019-02-20T22:42:42.974Z,67.38
2019-02-20T22:46:05.796Z,67.61
2019-02-20T22:49:20.564Z,67.63
2019-02-20T22:52:23.626Z,67.59
2019-02-20T22:56:00.434Z,67.62
2019-02-20T22:59:29.733Z,67.72
2019-02-20T23:02:47.545Z,67.82
2019-02-20T23:06:46.092Z,67.81
2019-02-20T23:09:54.948Z,67.65
2019-02-20T23:13:25.962Z,67.61
2019-02-20T23:15:57.576Z,67.63
2019-02-20T23:18:30.064Z,67.82
2019-02-20T23:21:01.394Z,67.71
2019-02-20T23:23:33.008Z,67.74
2019-02-20T23:26:04.887Z,67.70
2019-02-20T23:28:36.194Z,67.68
2019-02-20T23:31:07.774Z,67.64
2019-02-20T23:33:39.399Z,67.65
2019-02-20T23:36:10.699Z,67.51
2019-02-20T23:38:42.586Z,67.45
2019-02-20T23:41:14.226Z,67.61
2019-02-20T23:43:45.988Z,67.70
2019-02-20T23:46:17.272Z,67.58
2019-02-20T23:48:48.550Z,67.60
2019-02-20T23:51:20.230Z,67.64
2019-02-20T23:53:53.062Z,67.65
2019-02-20T23:56:24.270Z,67.61
2019-02-20T23:58:55.571Z,67.76
